createdAt,value
2023-03-22T00:00:04.446Z,100823.66
2023-03-22T00:02:35.366Z,100828.88
2023-03-22T00:05:05.323Z,100836.84
2023-03-22T00:07:35.126Z,100847.88
2023-03-22T00:10:05.085Z,100841.88
2023-03-22T00:12:34.917Z,100848.22
2023-03-22T00:15:05.080Z,100849.34
2023-03-22T00:17:35.129Z,100849.03
2023-03-22T00:20:08.404Z,100853.41
2023-03-22T00:22:38.693Z,100845.13
2023-03-22T00:25:09.065Z,100861.72
2023-03-22T00:27:39.291Z,100860.09
2023-03-22T00:30:10.362Z,100860.56
2023-03-22T00:32:41.188Z,100860.56
2023-03-22T00:35:13.136Z,100863.34
2023-03-22T00:37:43.198Z,100875.19
2023-03-22T00:40:18.411Z,100872.75
2023-03-22T00:42:48.392Z,100873.59
2023-03-22T00:45:18.452Z,100876.34
2023-03-22T00:47:48.545Z,100879.91
2023-03-22T00:50:18.452Z,100880.72
2023-03-22T00:52:48.380Z,100887.06
2023-03-22T00:55:18.384Z,100891.47
2023-03-22T00:57:49.122Z,100899.75
2023-03-22T01:00:19.936Z,100905.28
2023-03-22T01:02:50.055Z,100904.81
2023-03-22T01:05:24.190Z,100911.63
2023-03-22T01:07:54.246Z,100915.22
2023-03-22T01:10:24.507Z,100916.66
2023-03-22T01:12:54.519Z,100921.88
2023-03-22T01:15:25.427Z,100915.53
2023-03-22T01:17:55.735Z,100929.03
2023-03-22T01:20:27.102Z,100932.94
2023-03-22T01:22:57.807Z,100935.72
2023-03-22T01:25:28.051Z,100935.72
2023-03-22T01:27:58.309Z,100935.72
2023-03-22T01:30:28.564Z,100950.03
2023-03-22T01:32:58.785Z,100952.16
2023-03-22T01:35:29.333Z,100948.88
2023-03-22T01:37:59.517Z,100953.28
2023-03-22T01:40:30.730Z,100961.25
2023-03-22T01:43:02.877Z,100948.22
2023-03-22T01:45:41.052Z,100954.25
2023-03-22T01:48:32.413Z,100956.69
2023-03-22T01:51:07.521Z,100957.50
2023-03-22T01:53:57.316Z,100959.63
2023-03-22T01:56:32.491Z,100964.03
2023-03-22T01:59:06.592Z,100967.28
2023-03-22T02:04:41.341Z,100975.72
2023-03-22T02:07:17.662Z,100974.94
2023-03-22T02:09:50.166Z,100972.63
2023-03-22T02:16:33.744Z,100975.13
2023-03-22T02:19:44.515Z,100977.53
2023-03-22T02:22:43.882Z,100981.94
2023-03-22T02:25:56.031Z,100985.53
2023-03-22T02:29:04.237Z,100987.97
2023-03-22T02:32:18.695Z,100990.44
2023-03-22T02:35:19.075Z,100990.44
2023-03-22T02:38:54.757Z,100987.31
2023-03-22T02:42:12.619Z,100989.75
2023-03-22T02:45:19.807Z,100986.50
2023-03-22T02:48:30.963Z,100988.97
2023-03-22T02:51:12.782Z,100990.59
2023-03-22T02:53:51.686Z,100992.22
2023-03-22T02:56:47.383Z,100995.28
2023-03-22T02:59:20.176Z,100985.06
2023-03-22T03:04:50.653Z,100977.91
2023-03-22T03:07:24.643Z,100981.16
2023-03-22T03:10:17.601Z,100987.97
2023-03-22T03:12:48.706Z,100978.88
2023-03-22T03:15:22.126Z,100982.78
2023-03-22T03:18:15.920Z,100981.31
2023-03-22T03:21:25.526Z,100977.41
2023-03-22T03:24:39.124Z,100975.44
2023-03-22T03:27:25.090Z,100971.88
2023-03-22T03:30:22.200Z,100982.28
2023-03-22T03:33:01.392Z,100980.66
2023-03-22T03:35:45.813Z,100979.53
2023-03-22T03:38:20.903Z,100978.38
2023-03-22T03:41:01.246Z,100971.53
2023-03-22T03:43:51.589Z,100977.56
2023-03-22T03:46:39.776Z,100975.94
2023-03-22T03:49:15.582Z,100976.41
2023-03-22T03:54:40.580Z,100965.06
2023-03-22T03:57:15.942Z,100968.63
2023-03-22T03:59:45.974Z,100962.75
2023-03-22T04:02:27.060Z,100964.72
2023-03-22T04:05:15.840Z,100949.41
2023-03-22T04:07:46.068Z,100953.81
2023-03-22T04:10:16.187Z,100942.72
2023-03-22T04:12:46.849Z,100947.47
2023-03-22T04:18:11.958Z,100942.44
2023-03-22T04:21:00.289Z,100931.34
2023-03-22T04:23:35.815Z,100930.53
2023-03-22T04:26:05.988Z,100929.41
2023-03-22T04:28:46.311Z,100921.91
2023-03-22T04:31:41.558Z,100913.63
2023-03-22T04:34:24.740Z,100909.69
2023-03-22T04:37:04.669Z,100899.44
2023-03-22T04:39:37.538Z,100906.91
2023-03-22T04:42:26.977Z,100896.69
2023-03-22T04:47:59.351Z,100892.78
2023-03-22T04:53:42.879Z,100886.59
2023-03-22T04:56:16.991Z,100877.81
2023-03-22T04:58:49.151Z,100883.47
2023-03-22T05:01:21.323Z,100881.53
2023-03-22T05:04:00.013Z,100870.13
2023-03-22T05:06:30.236Z,100869.00
2023-03-22T05:11:56.607Z,100851.25
2023-03-22T05:14:34.877Z,100842.59
2023-03-22T05:17:05.921Z,100840.66
2023-03-22T05:19:54.443Z,100836.75
2023-03-22T05:22:25.434Z,100839.19
2023-03-22T05:27:46.801Z,100822.25
2023-03-22T05:30:37.796Z,100823.88
2023-03-22T05:33:16.514Z,100804.84
2023-03-22T05:35:48.767Z,100800.94
2023-03-22T05:38:19.755Z,100796.19
2023-03-22T05:40:53.585Z,100791.47
2023-03-22T05:43:23.873Z,100782.84
2023-03-22T05:45:53.978Z,100772.59
2023-03-22T05:48:46.879Z,100762.81
2023-03-22T05:51:19.906Z,100765.56
2023-03-22T05:53:55.493Z,100756.63
2023-03-22T05:56:30.206Z,100753.88
2023-03-22T05:59:07.866Z,100742.81
2023-03-22T06:01:38.579Z,100740.84
2023-03-22T06:04:20.900Z,100734.16
2023-03-22T06:10:04.331Z,100708.94
2023-03-22T06:12:53.372Z,100707.31
2023-03-22T06:15:29.754Z,100705.69
2023-03-22T06:18:18.009Z,100695.09
2023-03-22T06:20:53.875Z,100684.81
2023-03-22T06:23:24.684Z,100686.44
2023-03-22T06:25:55.947Z,100670.63
2023-03-22T06:28:31.625Z,100663.94
2023-03-22T06:31:12.457Z,100661.66
2023-03-22T06:33:49.358Z,100643.91
2023-03-22T06:36:37.951Z,100648.78
2023-03-22T06:39:29.864Z,100645.66
2023-03-22T06:44:51.987Z,100631.97
2023-03-22T06:47:40.234Z,100624.16
2023-03-22T06:50:20.283Z,100624.94
2023-03-22T06:53:08.603Z,100609.13
2023-03-22T06:55:38.835Z,100611.44
2023-03-22T06:58:21.573Z,100604.91
2023-03-22T07:00:51.772Z,100602.13
2023-03-22T07:03:26.302Z,100595.75
2023-03-22T07:11:40.682Z,100584.84
2023-03-22T07:14:11.559Z,100584.13
2023-03-22T07:17:02.050Z,100573.06
2023-03-22T07:19:51.042Z,100569.97
2023-03-22T07:22:40.721Z,100570.44
2023-03-22T07:28:09.189Z,100565.50
2023-03-22T07:30:41.427Z,100565.50
2023-03-22T07:33:13.352Z,100552.59
2023-03-22T07:35:44.840Z,100549.00
2023-03-22T07:38:15.209Z,100554.53
2023-03-22T07:40:45.379Z,100545.88
2023-03-22T07:43:16.204Z,100546.81
2023-03-22T07:45:57.912Z,100542.78
2023-03-22T07:48:46.089Z,100532.66
2023-03-22T07:51:48.552Z,100532.66
2023-03-22T07:54:32.416Z,100519.25
2023-03-22T07:57:05.375Z,100526.41
2023-03-22T07:59:53.465Z,100516.66
2023-03-22T08:05:46.405Z,100508.00
2023-03-22T08:08:18.137Z,100507.66
2023-03-22T08:13:40.136Z,100509.72
2023-03-22T08:16:12.920Z,100513.31
2023-03-22T08:18:45.038Z,100512.97
2023-03-22T08:21:16.253Z,100511.03
2023-03-22T08:23:48.758Z,100519.31
2023-03-22T08:26:44.799Z,100506.63
2023-03-22T08:29:32.907Z,100506.63
2023-03-22T08:34:50.061Z,100504.31
2023-03-22T08:37:22.392Z,100509.50
2023-03-22T08:40:12.055Z,100496.03
2023-03-22T08:43:01.052Z,100492.53
2023-03-22T08:45:32.921Z,100496.13
2023-03-22T08:48:12.468Z,100491.38
2023-03-22T08:51:01.252Z,100498.22
2023-03-22T08:53:41.765Z,100488.41
2023-03-22T08:56:31.183Z,100485.97
2023-03-22T08:59:15.193Z,100490.81
2023-03-22T09:02:03.125Z,100492.78
2023-03-22T09:04:51.315Z,100492.78
2023-03-22T09:07:26.448Z,100485.16
2023-03-22T09:10:14.744Z,100478.47
2023-03-22T09:13:03.016Z,100476.84
2023-03-22T09:15:33.852Z,100477.31
2023-03-22T09:18:22.148Z,100479.28
2023-03-22T09:21:11.921Z,100474.53
2023-03-22T09:23:55.048Z,100469.34
2023-03-22T09:26:31.517Z,100462.66
2023-03-22T09:29:02.068Z,100467.84
2023-03-22T09:31:32.511Z,100471.09
2023-03-22T09:34:25.490Z,100467.97
2023-03-22T09:36:57.502Z,100454.78
2023-03-22T09:39:33.096Z,100461.47
2023-03-22T09:42:13.088Z,100457.69
2023-03-22T09:44:46.315Z,100452.16
2023-03-22T09:47:43.861Z,100448.91
2023-03-22T09:50:25.937Z,100440.25
2023-03-22T09:52:56.017Z,100444.63
2023-03-22T09:55:39.367Z,100449.72
2023-03-22T09:58:23.951Z,100447.31
2023-03-22T10:01:04.434Z,100455.16
2023-03-22T10:03:43.270Z,100457.91
2023-03-22T10:06:23.707Z,100455.84
2023-03-22T10:09:13.775Z,100460.22
2023-03-22T10:11:57.121Z,100467.75
2023-03-22T10:14:43.737Z,100474.91
2023-03-22T10:17:20.254Z,100481.22
2023-03-22T10:20:00.386Z,100479.63
2023-03-22T10:22:35.556Z,100485.16
2023-03-22T10:25:09.131Z,100486.78
2023-03-22T10:27:40.140Z,100489.53
2023-03-22T10:30:21.857Z,100484.00
2023-03-22T10:33:00.855Z,100487.13
2023-03-22T10:35:32.768Z,100488.28
2023-03-22T10:38:06.911Z,100489.09
2023-03-22T10:40:39.151Z,100487.47
2023-03-22T10:43:15.885Z,100490.22
2023-03-22T10:45:46.450Z,100497.75
2023-03-22T10:48:28.272Z,100500.84
2023-03-22T10:51:01.002Z,100504.75
2023-03-22T10:53:50.086Z,100494.88
2023-03-22T10:56:23.489Z,100498.78
2023-03-22T10:58:54.308Z,100500.72
2023-03-22T11:01:38.941Z,100513.91
2023-03-22T11:04:14.837Z,100508.72
2023-03-22T11:06:56.525Z,100519.81
2023-03-22T11:09:27.120Z,100523.72
2023-03-22T11:12:01.563Z,100524.41
2023-03-22T11:14:44.185Z,100526.03
2023-03-22T11:17:17.495Z,100539.50
2023-03-22T11:20:17.617Z,100538.72
2023-03-22T11:22:51.600Z,100539.88
2023-03-22T11:25:46.673Z,100544.94
2023-03-22T11:28:36.746Z,100550.81
2023-03-22T11:31:11.558Z,100553.94
2023-03-22T11:33:57.999Z,100552.78
2023-03-22T11:36:30.499Z,100553.47
2023-03-22T11:39:08.353Z,100553.94
2023-03-22T11:41:41.799Z,100571.69
2023-03-22T11:44:17.495Z,100575.97
2023-03-22T11:47:15.279Z,100576.44
2023-03-22T11:49:52.108Z,100582.63
2023-03-22T11:52:26.680Z,100588.97
2023-03-22T11:54:58.540Z,100588.97
2023-03-22T11:57:34.336Z,100594.50
2023-03-22T12:00:14.134Z,100585.72
2023-03-22T12:02:48.953Z,100583.44
2023-03-22T12:05:26.792Z,100582.63
2023-03-22T12:08:29.858Z,100589.81
2023-03-22T12:11:10.808Z,100589.81
2023-03-22T12:13:56.242Z,100588.16
2023-03-22T12:16:33.123Z,100585.06
2023-03-22T12:19:22.100Z,100586.91
2023-03-22T12:21:54.029Z,100592.88
2023-03-22T12:24:33.615Z,100587.34
2023-03-22T12:27:12.419Z,100592.88
2023-03-22T12:30:01.284Z,100571.75
2023-03-22T12:32:36.585Z,100579.75
2023-03-22T12:35:17.144Z,100580.88
2023-03-22T12:37:50.360Z,100582.72
2023-03-22T12:40:30.060Z,100583.50
2023-03-22T12:43:19.070Z,100586.63
2023-03-22T12:45:55.512Z,100585.91
2023-03-22T12:48:50.804Z,100592.91
2023-03-22T12:51:20.975Z,100595.84
2023-03-22T12:54:49.272Z,100617.25
2023-03-22T12:57:19.791Z,100614.22
2023-03-22T12:59:54.328Z,100624.81
2023-03-22T13:02:54.981Z,100627.97
2023-03-22T13:05:30.281Z,100628.97
2023-03-22T13:08:06.217Z,100634.88
2023-03-22T13:10:37.151Z,100631.16
2023-03-22T13:13:09.897Z,100630.75
2023-03-22T13:15:43.704Z,100638.13
2023-03-22T13:18:33.544Z,100643.72
2023-03-22T13:21:21.419Z,100640.13
2023-03-22T13:24:21.838Z,100649.31
2023-03-22T13:26:57.340Z,100652.25
2023-03-22T13:29:40.209Z,100658.88
2023-03-22T13:32:27.998Z,100664.72
2023-03-22T13:34:59.116Z,100662.75
2023-03-22T13:37:37.058Z,100659.59
2023-03-22T13:40:32.064Z,100667.09
2023-03-22T13:43:16.122Z,100671.31
2023-03-22T13:46:17.123Z,100675.72
2023-03-22T13:48:54.473Z,100678.81
2023-03-22T13:51:24.894Z,100680.00
2023-03-22T13:54:10.218Z,100681.47
2023-03-22T13:57:02.347Z,100679.50
2023-03-22T14:00:08.829Z,100690.13
2023-03-22T14:02:45.683Z,100692.22
2023-03-22T14:05:24.564Z,100697.75
2023-03-22T14:08:00.487Z,100699.38
2023-03-22T14:10:43.113Z,100710.59
2023-03-22T14:13:44.592Z,100712.63
2023-03-22T14:16:39.430Z,100705.78
2023-03-22T14:19:16.473Z,100719.09
2023-03-22T14:52:52.452Z,100753.00
2023-03-22T14:55:29.875Z,100756.59
2023-03-22T14:58:02.225Z,100760.66
2023-03-22T15:00:32.762Z,100761.59
2023-03-22T15:03:07.124Z,100762.75
2023-03-22T15:05:43.030Z,100768.44
2023-03-22T15:08:28.029Z,100759.97
2023-03-22T15:11:01.855Z,100765.34
2023-03-22T15:13:33.359Z,100757.84
2023-03-22T15:16:04.426Z,100763.91
2023-03-22T15:18:36.848Z,100774.22
2023-03-22T15:21:08.860Z,100762.97
2023-03-22T15:23:42.654Z,100767.06
2023-03-22T15:26:21.264Z,100766.56
2023-03-22T15:29:07.331Z,100767.72
2023-03-22T15:31:47.024Z,100761.34
2023-03-22T15:34:22.569Z,100765.28
2023-03-22T15:36:53.381Z,100763.66
2023-03-22T15:39:27.229Z,100763.66
2023-03-22T15:42:15.663Z,100756.16
2023-03-22T15:45:14.455Z,100761.69
2023-03-22T15:47:54.238Z,100758.13
2023-03-22T15:50:26.216Z,100755.69
2023-03-22T15:52:59.518Z,100761.22
2023-03-22T15:55:42.178Z,100768.03
2023-03-22T15:58:34.934Z,100763.66
2023-03-22T16:01:18.042Z,100760.91
2023-03-22T16:03:54.984Z,100770.00
2023-03-22T16:06:29.742Z,100770.66
2023-03-22T16:09:01.109Z,100772.63
2023-03-22T16:11:32.813Z,100763.66
2023-03-22T16:14:03.125Z,100767.59
2023-03-22T16:16:33.517Z,100768.38
2023-03-22T16:19:03.751Z,100757.16
2023-03-22T16:21:34.663Z,100758.78
2023-03-22T16:24:06.755Z,100759.94
2023-03-22T16:26:37.507Z,100761.09
2023-03-22T16:29:07.765Z,100759.47
2023-03-22T16:31:45.326Z,100764.16
2023-03-22T16:34:21.793Z,100749.03
2023-03-22T16:36:51.866Z,100757.81
2023-03-22T16:39:21.933Z,100764.50
2023-03-22T16:41:52.413Z,100767.75
2023-03-22T16:44:22.994Z,100764.50
2023-03-22T16:46:53.470Z,100763.38
2023-03-22T16:49:23.551Z,100754.56
2023-03-22T16:51:53.835Z,100760.13
2023-03-22T16:54:24.047Z,100757.81
2023-03-22T16:56:54.238Z,100751.31
2023-03-22T16:59:24.680Z,100748.56
2023-03-22T17:01:55.001Z,100744.66
2023-03-22T17:04:25.562Z,100754.44
2023-03-22T17:06:56.727Z,100762.25
2023-03-22T17:09:27.014Z,100760.78
2023-03-22T17:11:57.483Z,100758.00
2023-03-22T17:14:27.755Z,100750.38
2023-03-22T17:16:57.783Z,100750.69
2023-03-22T17:19:28.111Z,100755.94
2023-03-22T17:21:58.218Z,100755.94
2023-03-22T17:24:28.254Z,100744.03
2023-03-22T17:26:58.494Z,100747.94
2023-03-22T17:29:29.399Z,100747.13
2023-03-22T17:32:09.575Z,100743.22
2023-03-22T17:34:45.500Z,100741.59
2023-03-22T17:37:15.704Z,100742.41
2023-03-22T17:40:20.706Z,100740.47
2023-03-22T17:42:37.018Z,100745.50
2023-03-22T17:45:08.473Z,100752.19
2023-03-22T17:47:42.648Z,100745.50
2023-03-22T17:50:14.400Z,100745.50
2023-03-22T17:52:44.970Z,100743.88
2023-03-22T17:55:31.323Z,100745.03
2023-03-22T17:58:34.835Z,100733.47
2023-03-22T18:01:03.571Z,100735.91
2023-03-22T18:03:33.784Z,100740.63
2023-03-22T18:06:04.043Z,100735.09
2023-03-22T18:08:34.297Z,100737.38
2023-03-22T18:11:07.400Z,100727.47
2023-03-22T18:13:38.430Z,100734.13
2023-03-22T18:16:08.871Z,100723.91
2023-03-22T18:18:39.003Z,100717.22
2023-03-22T18:21:12.139Z,100714.78
2023-03-22T18:23:42.611Z,100710.06
2023-03-22T18:26:28.428Z,100704.19
2023-03-22T18:28:59.221Z,100705.03
2023-03-22T18:31:31.164Z,100703.41
2023-03-22T18:34:01.619Z,100700.94
2023-03-22T18:36:32.059Z,100695.75
2023-03-22T18:39:30.862Z,100698.53
2023-03-22T18:41:55.520Z,100688.59
2023-03-22T18:44:29.803Z,100685.84
2023-03-22T18:47:00.265Z,100687.78
2023-03-22T18:49:30.378Z,100681.44
2023-03-22T18:52:36.134Z,100680.31
2023-03-22T18:54:55.476Z,100681.59
2023-03-22T18:57:32.319Z,100683.22
2023-03-22T19:00:03.274Z,100684.69
2023-03-22T19:02:39.862Z,100681.59
2023-03-22T19:05:11.788Z,100681.59
2023-03-22T19:07:55.039Z,100679.97
2023-03-22T19:10:30.737Z,100683.38
2023-03-22T19:13:01.126Z,100694.75
2023-03-22T19:15:44.396Z,100695.75
2023-03-22T19:18:19.115Z,100689.88
2023-03-22T19:21:06.584Z,100688.59
2023-03-22T19:23:39.769Z,100682.59
2023-03-22T19:26:11.614Z,100682.09
2023-03-22T19:28:41.998Z,100678.84
2023-03-22T19:31:12.532Z,100678.84
2023-03-22T19:36:16.130Z,100676.91
2023-03-22T19:38:46.670Z,100670.56
2023-03-22T19:41:45.236Z,100664.22
2023-03-22T19:44:08.269Z,100662.41
2023-03-22T19:46:39.042Z,100665.50
2023-03-22T19:49:10.640Z,100661.94
2023-03-22T19:51:41.030Z,100661.13
2023-03-22T19:54:30.158Z,100660.63
2023-03-22T19:57:02.700Z,100659.50
2023-03-22T19:59:34.145Z,100665.03
2023-03-22T20:02:04.633Z,100659.84
2023-03-22T20:04:36.570Z,100659.84
2023-03-22T20:07:07.038Z,100656.25
2023-03-22T20:09:37.792Z,100657.06
2023-03-22T20:12:08.753Z,100656.59
2023-03-22T20:14:39.486Z,100654.31
2023-03-22T20:17:12.624Z,100654.31
2023-03-22T20:19:48.108Z,100653.81
2023-03-22T20:22:20.264Z,100662.91
2023-03-22T20:24:50.536Z,100661.47
2023-03-22T20:27:21.026Z,100663.41
2023-03-22T20:29:51.445Z,100664.22
2023-03-22T20:32:22.089Z,100657.56
2023-03-22T20:34:52.333Z,100664.22
2023-03-22T20:37:24.782Z,100667.31
2023-03-22T20:39:55.534Z,100662.25
2023-03-22T20:42:25.838Z,100665.84
2023-03-22T20:44:57.001Z,100664.22
2023-03-22T20:47:27.651Z,100663.41
2023-03-22T20:49:58.573Z,100665.38
2023-03-22T20:52:29.760Z,100659.34
2023-03-22T20:55:00.186Z,100664.53
2023-03-22T20:57:32.212Z,100664.09
2023-03-22T21:00:03.574Z,100667.66
2023-03-22T21:02:34.402Z,100668.00
2023-03-22T21:05:04.906Z,100664.88
2023-03-22T21:07:35.237Z,100662.13
2023-03-22T21:10:06.236Z,100666.38
2023-03-22T21:12:37.073Z,100664.88
2023-03-22T21:15:10.023Z,100667.81
2023-03-22T21:17:40.624Z,100664.41
2023-03-22T21:20:20.662Z,100661.63
2023-03-22T21:22:57.651Z,100660.34
2023-03-22T21:25:29.360Z,100666.69
2023-03-22T21:28:01.084Z,100663.13
2023-03-22T21:30:31.730Z,100665.22
2023-03-22T21:33:02.419Z,100660.66
2023-03-22T21:35:32.961Z,100662.78
2023-03-22T21:38:05.889Z,100673.03
2023-03-22T21:40:37.124Z,100663.13
2023-03-22T21:43:07.447Z,100665.69
2023-03-22T21:45:37.737Z,100673.34
2023-03-22T21:48:09.614Z,100670.75
2023-03-22T21:50:41.371Z,100663.75
2023-03-22T21:53:11.664Z,100669.63
2023-03-22T21:55:43.732Z,100671.56
2023-03-22T21:58:15.698Z,100672.88
2023-03-22T22:00:47.265Z,100671.22
2023-03-22T22:03:18.021Z,100668.78
2023-03-22T22:05:53.243Z,100676.28
2023-03-22T22:08:25.777Z,100677.09
2023-03-22T22:11:00.973Z,100675.63
2023-03-22T22:13:32.180Z,100681.47
2023-03-22T22:16:04.726Z,100681.47
2023-03-22T22:18:38.014Z,100686.53
2023-03-22T22:21:14.104Z,100681.81
2023-03-22T22:23:47.973Z,100688.16
2023-03-22T22:26:19.960Z,100695.00
2023-03-22T22:28:52.284Z,100703.28
2023-03-22T22:31:26.378Z,100699.06
2023-03-22T22:33:57.917Z,100698.25
2023-03-22T22:36:32.527Z,100696.94
2023-03-22T22:39:07.049Z,100707.16
2023-03-22T22:41:37.806Z,100707.16
2023-03-22T22:44:08.904Z,100715.47
2023-03-22T22:46:39.738Z,100715.00
2023-03-22T22:49:10.168Z,100709.47
2023-03-22T22:51:40.860Z,100715.31
2023-03-22T22:55:15.393Z,100726.72
2023-03-22T22:57:46.470Z,100725.91
2023-03-22T23:00:18.096Z,100730.75
2023-03-22T23:02:48.944Z,100736.28
2023-03-22T23:05:19.866Z,100739.06
2023-03-22T23:07:50.458Z,100737.78
2023-03-22T23:10:24.360Z,100738.75
2023-03-22T23:12:54.710Z,100743.78
2023-03-22T23:15:27.457Z,100748.19
2023-03-22T23:18:06.840Z,100753.22
2023-03-22T23:20:43.943Z,100753.22
2023-03-22T23:23:14.502Z,100759.91
2023-03-22T23:25:44.953Z,100760.22
2023-03-22T23:28:15.540Z,100765.41
2023-03-22T23:30:46.490Z,100765.72
2023-03-22T23:33:17.224Z,100768.50
2023-03-22T23:35:47.662Z,100772.41
2023-03-22T23:38:18.355Z,100780.69
2023-03-22T23:40:48.733Z,100778.75
2023-03-22T23:43:19.046Z,100782.66
2023-03-22T23:45:49.344Z,100798.13
2023-03-22T23:48:19.720Z,100801.69
2023-03-22T23:50:50.070Z,100802.81
2023-03-22T23:53:20.431Z,100808.69
2023-03-22T23:55:50.918Z,100815.19
2023-03-22T23:58:21.906Z,100815.84
